أريحا, الأردن

01:19 AM EET on وèلهبر 01, 2014 (GMT +0200)
Ben Gurion | Change Station
CLOSE
Current Station
Airport
Location: Tel Aviv,
Elevation: 161 ft
Nearby Weather Stations

Elev 161 ft 32.01 °N, 34.89 °E | Updated 29 minutes ago

Light Rain
مطر خفيف
64 °F
Feels Like 64 °F
N
6
ريح متغير ريح from NNE

هذا اليوم
High -- | Low -- °F
--% Chance of Precip.
Yesterday
High -- | Low -- °F
Precip. -- في
5:54 AM 4:48 PM
الربع الاول, 60% visible
الضغط 29.98 في
وضوح الرؤية 6.2 أميال
سحابات غيوم متفرقة 3000 ft
نقطة الندى 59 °F
الرطوبة 83%
Rainfall 0.00 في
عمق الثلج Not available.
الأشعة فوق البنفسجية 0 out of 12
Pollen Not available.
جودة الهواء Not available.
Flu Activity Not available.
METAR LLBG 312250Z 03005KT 9999 -RA SCT030 18/15 Q1015 NOSIG

More Conditions Fewer Conditions

الضغط 29.98 في
وضوح الرؤية 6.2 أميال
سحابات غيوم متفرقة 3000 ft
نقطة الندى 59 °F
الرطوبة 83%
Rainfall 0.00 في
عمق الثلج Not available.
الأشعة فوق البنفسجية 0 out of 12
Pollen Not available.
جودة الهواء Not available.
Flu Activity Not available.
METAR LLBG 312250Z 03005KT 9999 -RA SCT030 18/15 Q1015 NOSIG

More Conditions Fewer Conditions

10-Day Weather Forecast

Almanac

علم الفلك

Nov. 01, 2014 Rise Set
Actual Time
Civil Twilight
Nautical Twilight
Astronomical Twilight
قمر
Length Of Visible Light
طول الیوم
Tomorrow will be .
, % of the Moon is Illuminated

Today's Extremes

Country Highs Country Lows

Community

WunderPhotos

Upload Photos

1,766,775 photos uploaded!

WunderBlogs® & News

Nearby

جودة الهواء

  جودة الهواء AQ Index Pollutant
Not available.

عمق الثلج

Station Depth Elevation

Earthquake Activity

City Distance Mag. Time & Date
Minimum magnitude displayed is 2.5.

Coastal Water Temperatures

مكان درجات الحرارة

Nearby Weather Stations